首页
METAR-TAF:

METAR-TAF

机场 :

沃洛斯, 希腊

纬度: 39-13N, 经度: 022-48E, 海拔: 25米

当前天气观测

该预报发布于32分钟前的00:50 UTC
静风
温度 11°C
湿度 94%
气压 1019 hPa
能见度10公里或以上
少量云层高于1500英尺
少量云层高于2000英尺, 塔状积云.
多云层高于3000英尺
阴天层高于8000英尺
小雨

METAR: LGBL 270050Z 00000KT 9999 -RA FEW015 FEW020TCU BKN030 OVC080 11/10 Q1019

时间: 04:22 (01:22 UTC)

预报

该预报发布于2小时和22分钟前的23:00 UTC
预报有效从27日的 00点(UTC)到 27日的 09点(UTC)
风速6节,风向西
能见度10公里或以上
散云层高于2500英尺
多云层高于8000英尺
几率 40% :
短暂存在
从 27日的 00点(UTC)到 27日的 09点(UTC)
能見度: 5000

TAF: LGBL 262300Z 2700/2709 28006KT 9999 SCT025 BKN080 PROB40 TEMPO 2700/2709 5000 RA

超过4000个机场的气象观测和天气预报(METAR&TAF报告)。

可查询的气象台以黄色和红色小点在地图上表示。

将鼠标移到小点上方,可查看气象台名称。

然后点击查看天气观测和预报。

如需切换地图:点击带黑十字的绿色按钮放大地图;点击带横线的绿色按钮缩小地图;或者点击绿色箭头查看邻近地区的地图。


METAR-TAF: